Time;durP1;ratioP1;P1;durP2;ratioP2;P2;SDS_P1;SDS_P2;PMS_P1;PMS_P2;Temp;Humidity;BMP_temperature;BMP_pressure;BME280_temperature;BME280_humidity;BME280_pressure;Samples;Min_cycle;Max_cycle;Signal;HPM_P1;HPM_P2
2021/04/20 04:59:26;;;;;;;17.82;9.35;;;;;;;7.41;84.29;98217.72;1637256;86;21320;-54
2021/04/20 05:01:56;;;;;;;18.55;9.68;;;;;;;7.64;83.27;98211.25;1644381;86;21788;-53
2021/04/20 05:04:26;;;;;;;20.23;9.30;;;;;;;7.81;82.39;98209.80;1625770;88;21193;-57
2021/04/20 05:06:57;;;;;;;17.87;9.43;;;;;;;7.95;81.69;98207.42;1622680;88;21189;-54
2021/04/20 05:09:26;;;;;;;18.05;8.93;;;;;;;8.03;81.50;98206.41;1631056;88;21312;-56
2021/04/20 05:11:55;;;;;;;16.05;9.03;;;;;;;8.08;80.41;98208.39;1598544;87;21644;-53
2021/04/20 05:14:25;;;;;;;17.20;9.80;;;;;;;8.09;80.16;98206.90;1623062;88;21202;-54
2021/04/20 05:16:55;;;;;;;17.65;9.50;;;;;;;8.23;79.46;98202.39;1633025;88;21193;-52
2021/04/20 05:19:32;;;;;;;18.25;9.88;;;;;;;8.25;78.52;98206.92;1608852;87;21196;-53
2021/04/20 05:22:03;;;;;;;18.90;9.98;;;;;;;8.14;78.23;98201.00;1611898;87;21178;-50
2021/04/20 05:24:32;;;;;;;19.62;9.80;;;;;;;8.04;78.35;98200.66;1609251;89;21609;-56
2021/04/20 05:27:02;;;;;;;18.73;9.83;;;;;;;7.97;78.79;98198.03;1613111;89;21166;-54
2021/04/20 05:29:33;;;;;;;19.70;9.18;;;;;;;7.94;79.09;98197.95;1612987;87;21612;-53
2021/04/20 05:32:02;;;;;;;20.85;8.95;;;;;;;7.96;79.18;98203.78;1631277;87;21187;-54
2021/04/20 05:34:32;;;;;;;17.12;9.18;;;;;;;7.97;79.27;98206.73;1628217;87;21211;-50
2021/04/20 05:37:02;;;;;;;18.77;9.38;;;;;;;7.99;79.52;98196.82;1630911;87;21194;-51
2021/04/20 05:39:31;;;;;;;19.95;8.83;;;;;;;7.98;79.41;98193.91;1628528;88;21213;-49
2021/04/20 05:42:00;;;;;;;29.00;15.95;;;;;;;8.00;79.51;98198.94;1632288;88;21201;-50
2021/04/20 05:44:32;;;;;;;23.75;14.43;;;;;;;8.02;79.64;98196.10;1610369;87;21202;-54
2021/04/20 05:47:00;;;;;;;37.33;24.52;;;;;;;8.03;79.77;98199.85;1619016;87;21336;-56
2021/04/20 05:49:35;;;;;;;26.90;17.25;;;;;;;8.08;79.82;98193.95;1617802;87;21209;-55
2021/04/20 05:52:05;;;;;;;19.10;10.35;;;;;;;8.10;79.49;98200.63;1623654;88;21221;-55
2021/04/20 05:54:35;;;;;;;20.25;10.20;;;;;;;8.11;79.60;98200.92;1633745;88;21243;-53
2021/04/20 05:57:05;;;;;;;23.83;12.88;;;;;;;8.22;79.60;98196.84;1625081;88;21418;-57
2021/04/20 05:59:36;;;;;;;43.58;28.73;;;;;;;8.33;79.41;98201.45;1604088;89;21688;-51
2021/04/20 06:02:06;;;;;;;31.13;22.13;;;;;;;8.45;79.16;98192.42;1608129;89;21180;-56
2021/04/20 06:04:35;;;;;;;17.07;9.58;;;;;;;8.55;78.70;98199.36;1607547;89;21216;-53
2021/04/20 06:07:05;;;;;;;17.85;9.80;;;;;;;8.66;78.06;98200.48;1607931;89;21189;-52
2021/04/20 06:09:34;;;;;;;20.62;10.63;;;;;;;8.72;78.19;98194.41;1607988;89;21220;-56
2021/04/20 06:12:05;;;;;;;17.73;9.90;;;;;;;8.82;77.71;98192.61;1607890;89;21181;-50
2021/04/20 06:14:34;;;;;;;15.53;9.33;;;;;;;8.94;76.97;98190.91;1615617;89;21588;-51
2021/04/20 06:17:05;;;;;;;16.65;9.73;;;;;;;9.12;76.07;98194.11;1616177;89;21630;-51
2021/04/20 06:19:38;;;;;;;18.12;9.33;;;;;;;9.25;74.93;98189.56;1614752;89;21324;-52
2021/04/20 06:22:12;;;;;;;16.65;9.38;;;;;;;9.36;74.16;98184.12;1608521;89;21356;-51
2021/04/20 06:24:41;;;;;;;20.30;9.60;;;;;;;9.46;73.28;98189.70;1606961;89;21197;-54
2021/04/20 06:27:10;;;;;;;22.35;10.80;;;;;;;9.58;73.07;98186.64;1615381;89;21285;-56
2021/04/20 06:29:39;;;;;;;16.12;9.15;;;;;;;9.71;72.32;98180.44;1611308;89;21197;-56
2021/04/20 06:32:10;;;;;;;17.07;9.33;;;;;;;9.85;71.20;98182.41;1611007;89;21828;-50
2021/04/20 06:34:39;;;;;;;26.20;14.87;;;;;;;10.01;70.73;98175.24;1609529;89;21201;-50
2021/04/20 06:37:09;;;;;;;19.50;11.03;;;;;;;10.26;69.99;98167.78;1604913;89;21394;-59
2021/04/20 06:39:39;;;;;;;19.55;10.18;;;;;;;10.51;68.10;98184.28;1609350;89;21233;-57
2021/04/20 06:42:12;;;;;;;17.65;10.30;;;;;;;10.72;67.53;98181.64;1608416;89;21189;-55
2021/04/20 06:45:02;;;;;;;18.10;9.90;;;;;;;11.07;67.00;98170.41;1609479;88;21232;-52
2021/04/20 06:47:54;;;;;;;15.35;8.38;;;;;;;11.42;65.90;98163.83;1580336;90;21403;-50
2021/04/20 06:50:25;;;;;;;14.83;8.50;;;;;;;12.00;63.69;98170.91;1609738;89;21218;-51
2021/04/20 06:53:00;;;;;;;14.20;8.25;;;;;;;12.33;60.41;98179.49;1583261;90;21252;-51
2021/04/20 06:55:55;;;;;;;16.93;9.13;;;;;;;12.36;59.47;98167.12;1608981;89;21228;-52
2021/04/20 06:58:54;;;;;;;16.23;8.93;;;;;;;12.46;59.36;98162.55;1616598;87;21619;-51
2021/04/20 07:01:35;;;;;;;;;;;;;;;12.72;57.82;98161.95;1643895;87;21189;-52
2021/04/20 07:04:33;;;;;;;21.50;8.98;;;;;;;12.88;57.85;98153.76;1640565;87;20270;-55
2021/04/20 07:07:33;;;;;;;17.12;9.43;;;;;;;13.15;56.89;98151.29;1640452;87;21198;-49
2021/04/20 07:10:19;;;;;;;14.78;7.83;;;;;;;13.36;56.22;98147.64;1623613;87;21327;-52
2021/04/20 07:12:48;;;;;;;12.98;8.50;;;;;;;13.29;54.61;98153.91;1616089;89;21197;-51
2021/04/20 07:15:20;;;;;;;16.75;9.00;;;;;;;12.91;55.29;98159.11;1616542;89;21201;-56
2021/04/20 07:18:07;;;;;;;16.60;8.95;;;;;;;12.64;55.84;98153.09;1618535;89;21189;-50
2021/04/20 07:21:06;;;;;;;17.45;8.35;;;;;;;12.62;55.41;98161.79;1614978;89;21392;-49
2021/04/20 07:24:15;;;;;;;15.90;8.48;;;;;;;12.40;54.80;98162.17;1614884;89;21224;-50
2021/04/20 07:26:58;;;;;;;17.65;9.98;;;;;;;12.17;56.08;98151.97;1615774;89;21372;-55
2021/04/20 07:30:13;;;;;;;18.10;10.58;;;;;;;12.15;57.34;98157.19;1615668;89;21198;-53
2021/04/20 07:33:24;;;;;;;15.40;8.60;;;;;;;12.34;56.49;98157.31;1609899;89;21249;-52
2021/04/20 07:36:25;;;;;;;16.27;10.43;;;;;;;12.48;55.85;98149.36;1609231;89;21209;-55
2021/04/20 07:39:14;;;;;;;16.10;8.68;;;;;;;12.38;55.51;98148.37;1606019;88;21269;-53
2021/04/20 07:42:20;;;;;;;18.12;8.85;;;;;;;12.38;55.51;98148.37;1609127;88;21206;-51
2021/04/20 07:45:09;;;;;;;15.28;8.73;;;;;;;12.43;55.40;98147.95;1537911;93;21239;-48
2021/04/20 07:47:43;;;;;;;15.58;8.30;;;;;;;12.51;55.17;98138.05;1602102;89;21241;-55
2021/04/20 07:50:22;;;;;;;14.55;8.30;;;;;;;12.52;54.88;98131.20;1559066;91;21625;-57
2021/04/20 07:53:19;;;;;;;14.68;8.30;;;;;;;12.54;54.34;98133.08;1609649;89;21633;-59
2021/04/20 07:56:17;;;;;;;14.95;8.08;;;;;;;12.63;54.37;98134.30;1584766;89;21180;-51
2021/04/20 07:58:50;;;;;;;16.95;8.28;;;;;;;12.64;54.36;98123.20;1585597;90;21346;-53
2021/04/20 08:01:42;;;;;;;14.75;8.45;;;;;;;12.72;53.58;98121.48;1589159;90;21208;-53
2021/04/20 08:04:52;;;;;;;13.80;8.25;;;;;;;12.74;53.25;98115.45;1575349;89;21140;-57
2021/04/20 08:07:32;;;;;;;16.32;8.30;;;;;;;12.68;53.74;98116.41;1614455;89;21192;-56
2021/04/20 08:10:07;;;;;;;18.32;9.20;;;;;;;12.76;53.86;98110.71;1614235;89;21334;-56
2021/04/20 08:12:50;;;;;;;16.23;8.83;;;;;;;12.67;53.77;98121.39;1607397;89;21361;-57
2021/04/20 08:15:33;;;;;;;17.25;9.33;;;;;;;12.48;54.26;98115.00;1611605;89;21196;-58
2021/04/20 08:18:20;;;;;;;16.10;9.25;;;;;;;12.42;55.02;98098.77;1609708;89;21321;-53
2021/04/20 08:20:49;;;;;;;13.98;8.13;;;;;;;12.52;55.38;98087.58;1580304;89;21757;-52
2021/04/20 08:23:19;;;;;;;14.10;8.20;;;;;;;12.81;54.64;98092.28;1614890;89;21408;-54
2021/04/20 08:26:10;;;;;;;12.93;7.28;;;;;;;13.00;53.19;98085.70;1608162;89;21173;-51
2021/04/20 08:29:03;;;;;;;16.00;8.10;;;;;;;13.19;51.55;98073.03;1610222;89;21226;-52
2021/04/20 08:32:07;;;;;;;14.83;6.95;;;;;;;13.28;51.13;98084.02;1610926;87;22143;-54
2021/04/20 08:34:50;;;;;;;8.58;5.70;;;;;;;13.30;50.65;98071.33;1612365;89;21295;-54
2021/04/20 08:37:49;;;;;;;13.20;6.05;;;;;;;13.16;47.59;98074.82;1613245;89;21341;-50
2021/04/20 08:40:37;;;;;;;10.35;6.03;;;;;;;13.03;47.92;98097.13;1613178;89;21185;-51
2021/04/20 08:43:54;;;;;;;10.80;5.35;;;;;;;12.79;47.78;98088.27;1613213;89;21177;-53
2021/04/20 08:46:47;;;;;;;9.63;6.05;;;;;;;12.65;46.62;98081.97;1612752;89;21419;-47
2021/04/20 08:49:42;;;;;;;15.45;6.95;;;;;;;12.72;46.82;98073.88;1580581;89;21192;-50
2021/04/20 08:52:41;;;;;;;12.68;7.22;;;;;;;12.99;47.10;98064.78;1613717;87;21156;-58
2021/04/20 08:55:16;;;;;;;12.70;7.42;;;;;;;13.31;47.02;98074.28;1610226;89;21615;-55
2021/04/20 08:58:32;;;;;;;13.22;7.05;;;;;;;13.34;46.82;98079.59;1608853;89;21205;-52
2021/04/20 09:01:35;;;;;;;15.05;7.67;;;;;;;13.22;47.00;98069.91;1608898;88;21166;-47
2021/04/20 09:04:59;;;;;;;16.60;8.45;;;;;;;13.08;47.92;98062.54;1576347;90;21708;-53
2021/04/20 09:07:58;;;;;;;14.87;8.33;;;;;;;13.21;48.04;98061.70;1569417;91;21226;-48
2021/04/20 09:10:50;;;;;;;14.60;8.18;;;;;;;13.30;48.11;98062.06;1598646;88;21203;-48
2021/04/20 09:13:21;;;;;;;16.00;8.18;;;;;;;13.06;50.81;98091.06;1570091;90;21218;-50
2021/04/20 09:16:02;;;;;;;18.10;8.05;;;;;;;12.57;52.10;98114.62;1573585;89;21797;-54
2021/04/20 09:18:43;;;;;;;14.73;8.55;;;;;;;12.12;54.38;98082.38;1545328;90;21673;-56
2021/04/20 09:21:30;;;;;;;16.48;8.83;;;;;;;11.67;56.01;98087.81;1507037;89;55281;-54
2021/04/20 09:24:05;;;;;;;15.95;8.98;;;;;;;11.24;57.96;98076.36;1480087;96;21205;-54
2021/04/20 09:27:06;;;;;;;14.55;8.75;;;;;;;10.65;61.26;98078.15;1500143;95;21427;-54
2021/04/20 09:29:49;;;;;;;15.43;8.60;;;;;;;10.65;61.26;98078.15;1501642;95;21234;-57
2021/04/20 09:32:26;;;;;;;17.55;9.15;;;;;;;10.47;61.74;98067.69;1485738;94;21157;-51
2021/04/20 09:34:55;;;;;;;14.58;7.92;;;;;;;10.40;63.32;98073.58;1486627;95;21283;-52
2021/04/20 09:37:25;;;;;;;11.48;7.47;;;;;;;10.32;61.74;98074.20;1494836;95;21233;-48
2021/04/20 09:39:54;;;;;;;17.52;8.33;;;;;;;10.22;63.73;98077.05;1439704;98;21259;-50
2021/04/20 09:42:24;;;;;;;22.45;11.08;;;;;;;10.22;63.73;98077.05;1499194;96;21251;-50
2021/04/20 09:45:19;;;;;;;16.48;9.48;;;;;;;10.17;66.74;98082.19;1517863;92;21258;-51
2021/04/20 09:48:13;;;;;;;12.53;7.45;;;;;;;10.12;66.94;98093.38;1534348;92;21214;-50
2021/04/20 09:51:02;;;;;;;13.35;7.65;;;;;;;9.99;62.49;98083.03;1521121;94;21317;-49
2021/04/20 09:53:57;;;;;;;12.73;7.05;;;;;;;9.94;63.68;98071.05;1524848;94;21295;-52
2021/04/20 09:56:42;;;;;;;12.63;6.55;;;;;;;9.93;61.63;98071.56;1525945;94;21655;-49
2021/04/20 09:59:24;;;;;;;8.03;5.37;;;;;;;10.04;61.62;98058.95;1479621;94;21270;-50
2021/04/20 10:02:19;;;;;;;8.58;5.60;;;;;;;10.21;61.13;98058.33;1547332;92;21136;-53
2021/04/20 10:05:12;;;;;;;10.50;5.42;;;;;;;10.40;60.47;98060.41;1553387;92;21204;-49
2021/04/20 10:08:18;;;;;;;12.65;6.70;;;;;;;10.55;58.33;98051.05;1550686;92;21188;-50
2021/04/20 10:11:06;;;;;;;13.20;6.85;;;;;;;10.66;59.14;98049.95;1553451;92;21216;-53
2021/04/20 10:14:03;;;;;;;13.70;7.70;;;;;;;10.73;59.69;98067.29;1535472;92;21253;-53
2021/04/20 10:16:55;;;;;;;17.20;9.00;;;;;;;10.77;59.98;98072.89;1535162;93;21254;-51
2021/04/20 10:19:32;;;;;;;15.32;8.10;;;;;;;10.44;64.43;98099.27;1533241;93;21170;-49
2021/04/20 10:22:25;;;;;;;18.87;9.25;;;;;;;9.82;66.61;98099.95;1523280;93;21264;-51
2021/04/20 10:25:26;;;;;;;17.98;9.28;;;;;;;9.27;74.14;98092.84;1534080;93;21230;-55
2021/04/20 10:28:22;;;;;;;17.32;8.95;;;;;;;8.74;80.21;98094.63;1544431;93;21226;-52
2021/04/20 10:30:56;;;;;;;18.57;9.03;;;;;;;8.20;86.20;98104.34;1534234;93;21225;-56
2021/04/20 10:33:25;;;;;;;17.73;8.63;;;;;;;7.75;93.17;98087.83;1532898;93;21270;-53
2021/04/20 10:35:58;;;;;;;12.78;7.47;;;;;;;7.48;99.17;98112.02;1533497;93;21229;-55
2021/04/20 10:38:33;;;;;;;18.65;8.78;;;;;;;7.31;100.00;98097.22;1533740;93;21271;-53
2021/04/20 10:41:03;;;;;;;18.87;9.73;;;;;;;7.21;100.00;98097.63;1535965;92;21225;-50
2021/04/20 10:43:32;;;;;;;14.17;8.17;;;;;;;7.19;100.00;98092.61;1535246;93;21182;-54
2021/04/20 10:46:10;;;;;;;14.45;7.80;;;;;;;7.21;100.00;98087.15;1507461;95;21348;-52
2021/04/20 10:48:39;;;;;;;16.57;7.53;;;;;;;7.26;100.00;98093.09;1541257;91;21623;-51
2021/04/20 10:51:09;;;;;;;16.48;9.35;;;;;;;7.45;100.00;98085.20;1556524;91;21770;-56
2021/04/20 10:53:39;;;;;;;29.02;23.85;;;;;;;7.72;100.00;98084.58;1559240;91;21368;-49
2021/04/20 10:56:13;;;;;;;29.10;20.62;;;;;;;8.05;100.00;98075.77;1548801;92;21277;-55
2021/04/20 10:58:48;;;;;;;18.52;10.75;;;;;;;8.38;100.00;98062.98;1547489;91;21190;-53
2021/04/20 11:01:23;;;;;;;15.13;8.68;;;;;;;8.56;100.00;98061.73;1551642;91;21241;-48
2021/04/20 11:03:59;;;;;;;13.13;7.72;;;;;;;8.67;100.00;98060.23;1519540;92;21555;-50
2021/04/20 11:06:46;;;;;;;11.73;6.70;;;;;;;8.83;100.00;98043.10;1547547;91;21269;-50
2021/04/20 11:09:32;;;;;;;7.65;4.92;;;;;;;9.03;100.00;98048.48;1546537;92;21245;-50
2021/04/20 11:12:16;;;;;;;8.83;5.67;;;;;;;9.25;100.00;98044.13;1535862;92;21703;-52
2021/04/20 11:14:48;;;;;;;9.55;4.90;;;;;;;9.49;100.00;98051.64;1540147;91;21212;-54
2021/04/20 11:17:44;;;;;;;8.80;4.90;;;;;;;9.70;100.00;98055.14;1549161;91;21375;-51
2021/04/20 11:20:51;;;;;;;5.35;3.80;;;;;;;9.72;100.00;98049.65;1541775;92;21224;-49
2021/04/20 11:23:25;;;;;;;4.37;3.80;;;;;;;9.81;100.00;98041.75;1533657;93;21363;-49
2021/04/20 11:26:13;;;;;;;6.20;4.30;;;;;;;10.02;98.17;98046.51;1543463;92;21209;-52
2021/04/20 11:28:49;;;;;;;4.00;3.60;;;;;;;10.23;97.01;98043.92;1548326;92;21260;-52
2021/04/20 11:31:38;;;;;;;4.90;3.47;;;;;;;10.56;90.06;98040.80;1544704;92;21241;-50
2021/04/20 11:34:22;;;;;;;10.10;5.53;;;;;;;10.76;81.71;98047.05;1544651;92;21259;-50
2021/04/20 11:37:07;;;;;;;6.42;4.28;;;;;;;10.98;79.53;98044.66;1551259;91;21263;-51
2021/04/20 11:39:44;;;;;;;4.42;3.67;;;;;;;11.26;73.48;98042.63;1545027;91;21252;-56
2021/04/20 11:42:39;;;;;;;5.83;4.03;;;;;;;11.26;73.48;98042.63;1522748;91;21632;-57
2021/04/20 11:45:20;;;;;;;6.25;4.47;;;;;;;11.38;76.13;98057.13;1542840;93;21182;-55
2021/04/20 11:47:59;;;;;;;7.03;4.50;;;;;;;11.50;75.39;98050.50;1534525;93;21673;-51
2021/04/20 11:50:31;;;;;;;9.38;5.80;;;;;;;11.18;73.64;98053.52;1540260;92;21180;-54
2021/04/20 11:53:06;;;;;;;6.42;4.55;;;;;;;11.18;73.64;98053.52;1554473;92;21339;-53
2021/04/20 11:55:39;;;;;;;8.58;4.90;;;;;;;11.07;73.77;98051.72;1528796;91;21276;-49
2021/04/20 11:58:29;;;;;;;7.92;5.00;;;;;;;11.06;75.34;98050.89;1508042;94;21236;-58
2021/04/20 12:01:09;;;;;;;6.35;4.62;;;;;;;11.07;77.34;98049.08;1514538;93;21230;-54
2021/04/20 12:03:53;;;;;;;7.47;5.30;;;;;;;11.10;77.63;98057.84;1487377;95;21235;-56
2021/04/20 12:06:24;;;;;;;8.25;5.45;;;;;;;11.09;78.85;98049.13;1523558;94;21213;-58
2021/04/20 12:08:55;;;;;;;7.67;4.58;;;;;;;11.13;81.10;98037.09;1528356;94;21226;-57
2021/04/20 12:11:29;;;;;;;9.70;5.10;;;;;;;11.26;81.59;98039.19;1527048;92;21349;-55
2021/04/20 12:14:00;;;;;;;8.70;5.20;;;;;;;11.35;82.07;98038.58;1542671;92;21181;-58
2021/04/20 12:16:34;;;;;;;10.28;5.60;;;;;;;11.42;80.82;98039.28;1540089;92;21227;-61
2021/04/20 12:19:07;;;;;;;9.25;5.37;;;;;;;11.46;80.63;98040.12;1537660;93;21184;-70
2021/04/20 12:21:39;;;;;;;13.68;5.33;;;;;;;11.50;80.77;98045.22;1544774;92;21223;-71
2021/04/20 12:24:09;;;;;;;;;;;;;;;11.50;80.99;98038.11;1543027;93;21188;-55
2021/04/20 12:26:38;;;;;;;9.65;5.33;;;;;;;11.48;81.52;98034.91;1536106;92;20225;-56
2021/04/20 12:29:12;;;;;;;9.13;5.00;;;;;;;11.43;80.15;98036.92;1534194;92;21230;-57
2021/04/20 12:31:42;;;;;;;8.13;5.53;;;;;;;11.30;79.00;98039.02;1530289;92;21225;-57
2021/04/20 12:34:12;;;;;;;14.13;7.72;;;;;;;11.12;79.43;98042.57;1516829;93;21373;-61
2021/04/20 12:36:52;;;;;;;12.05;6.22;;;;;;;10.94;79.88;98050.09;1537256;92;21392;-62
2021/04/20 12:39:38;;;;;;;7.10;4.40;;;;;;;10.66;85.10;98062.62;1545361;92;21209;-55
2021/04/20 12:42:11;;;;;;;8.03;4.92;;;;;;;10.01;93.76;98060.70;1552819;92;21197;-60
2021/04/20 12:44:47;;;;;;;8.18;5.20;;;;;;;9.26;100.00;98045.20;1548643;92;21269;-58
2021/04/20 12:47:18;;;;;;;6.22;4.78;;;;;;;8.76;100.00;98040.02;1510439;94;21412;-62
2021/04/20 12:49:49;;;;;;;6.25;4.17;;;;;;;8.51;100.00;98038.72;1512576;94;21243;-60
2021/04/20 12:52:25;;;;;;;6.12;4.12;;;;;;;8.28;100.00;98037.15;1504682;95;21217;-60
2021/04/20 12:55:07;;;;;;;7.75;4.85;;;;;;;8.11;100.00;98018.48;1487369;95;21423;-60
2021/04/20 12:57:42;;;;;;;6.70;4.78;;;;;;;8.12;100.00;98024.02;1509253;92;21265;-54
2021/04/20 13:00:19;;;;;;;8.65;5.85;;;;;;;8.38;100.00;98017.02;1518177;93;21823;-62
2021/04/20 13:02:55;;;;;;;8.95;6.53;;;;;;;8.70;100.00;98019.87;1530667;93;21218;-59
2021/04/20 13:05:36;;;;;;;9.25;5.83;;;;;;;9.03;100.00;98019.56;1528344;94;21372;-62
2021/04/20 13:08:13;;;;;;;11.25;6.53;;;;;;;9.35;100.00;98016.80;1528395;94;21367;-61
2021/04/20 13:10:43;;;;;;;10.70;6.90;;;;;;;9.62;100.00;98007.26;1528286;93;21250;-59
2021/04/20 13:13:13;;;;;;;8.83;6.28;;;;;;;9.92;100.00;98009.41;1495790;92;24098;-58
2021/04/20 13:15:44;;;;;;;11.53;6.53;;;;;;;10.20;100.00;98009.30;1460807;96;21245;-59
2021/04/20 13:18:19;;;;;;;13.70;7.12;;;;;;;10.44;100.00;98006.24;1505265;95;21222;-60
2021/04/20 13:20:52;;;;;;;15.25;6.95;;;;;;;10.65;100.00;98006.98;1509826;93;21242;-62
2021/04/20 13:23:46;;;;;;;13.83;8.15;;;;;;;10.85;100.00;98010.62;1487105;94;21245;-63
2021/04/20 13:26:23;;;;;;;17.65;8.83;;;;;;;11.02;100.00;98005.45;1502980;95;21240;-67
2021/04/20 13:28:52;;;;;;;16.50;8.20;;;;;;;11.10;100.00;98003.77;1497009;95;21399;-62
2021/04/20 13:31:30;;;;;;;20.37;13.45;;;;;;;10.97;100.00;98007.45;1525951;94;21268;-64
2021/04/20 13:34:12;;;;;;;13.53;6.72;;;;;;;10.97;100.00;98007.45;1521117;94;21225;-59
2021/04/20 13:36:47;;;;;;;8.95;5.90;;;;;;;10.91;100.00;98009.70;1511637;95;21644;-59
2021/04/20 13:39:36;;;;;;;7.80;5.58;;;;;;;10.82;100.00;98001.83;1510777;94;21276;-60
2021/04/20 13:42:07;;;;;;;7.75;5.05;;;;;;;10.76;100.00;98002.75;1510898;95;21220;-62
2021/04/20 13:44:47;;;;;;;8.25;5.55;;;;;;;10.68;100.00;97999.16;1510973;94;21236;-60
2021/04/20 13:47:17;;;;;;;10.53;5.90;;;;;;;10.69;100.00;98003.39;1516485;93;21305;-60
2021/04/20 13:49:50;;;;;;;11.12;6.80;;;;;;;10.68;100.00;97997.31;1519916;93;21268;-58
2021/04/20 13:52:22;;;;;;;15.58;9.30;;;;;;;10.72;100.00;97997.64;1517422;94;21387;-60
2021/04/20 13:54:59;;;;;;;15.95;8.43;;;;;;;10.73;100.00;98000.59;1463237;98;21685;-61
2021/04/20 13:57:32;;;;;;;9.40;6.40;;;;;;;10.70;100.00;98003.16;1513528;94;21221;-59
